sensor_id;sensor_type;location;lat;lon;timestamp;P1;durP1;ratioP1;P2;durP2;ratioP2
21266;SDS011;10791;53.108;18.326;2023-05-10T00:01:07;10.93;;;3.87;;
21266;SDS011;10791;53.108;18.326;2023-05-10T00:06:10;7.27;;;3.80;;
21266;SDS011;10791;53.108;18.326;2023-05-10T00:11:13;8.33;;;4.67;;
21266;SDS011;10791;53.108;18.326;2023-05-10T00:16:16;7.93;;;4.50;;
21266;SDS011;10791;53.108;18.326;2023-05-10T00:21:19;6.37;;;3.90;;
21266;SDS011;10791;53.108;18.326;2023-05-10T00:26:22;11.37;;;4.60;;
21266;SDS011;10791;53.108;18.326;2023-05-10T00:31:25;8.80;;;4.50;;
21266;SDS011;10791;53.108;18.326;2023-05-10T00:36:28;12.23;;;4.47;;
21266;SDS011;10791;53.108;18.326;2023-05-10T00:41:32;8.77;;;4.50;;
21266;SDS011;10791;53.108;18.326;2023-05-10T00:46:35;10.40;;;4.47;;
21266;SDS011;10791;53.108;18.326;2023-05-10T00:51:38;12.20;;;4.83;;
21266;SDS011;10791;53.108;18.326;2023-05-10T00:56:41;9.80;;;4.90;;
21266;SDS011;10791;53.108;18.326;2023-05-10T01:01:50;8.23;;;4.53;;
21266;SDS011;10791;53.108;18.326;2023-05-10T01:06:54;11.67;;;4.80;;
21266;SDS011;10791;53.108;18.326;2023-05-10T01:11:57;12.03;;;5.67;;
21266;SDS011;10791;53.108;18.326;2023-05-10T01:17:01;12.83;;;5.20;;
21266;SDS011;10791;53.108;18.326;2023-05-10T01:33:29;6.77;;;4.27;;
21266;SDS011;10791;53.108;18.326;2023-05-10T01:43:53;8.60;;;4.53;;
21266;SDS011;10791;53.108;18.326;2023-05-10T01:49:29;11.07;;;4.43;;
21266;SDS011;10791;53.108;18.326;2023-05-10T01:54:37;6.80;;;4.10;;
21266;SDS011;10791;53.108;18.326;2023-05-10T01:59:45;9.27;;;5.10;;
21266;SDS011;10791;53.108;18.326;2023-05-10T02:04:51;9.83;;;6.00;;
21266;SDS011;10791;53.108;18.326;2023-05-10T02:09:57;9.20;;;4.70;;
21266;SDS011;10791;53.108;18.326;2023-05-10T02:15:02;7.17;;;4.10;;
21266;SDS011;10791;53.108;18.326;2023-05-10T02:20:06;6.17;;;3.60;;
21266;SDS011;10791;53.108;18.326;2023-05-10T02:25:11;7.83;;;4.90;;
21266;SDS011;10791;53.108;18.326;2023-05-10T02:30:16;6.83;;;4.57;;
21266;SDS011;10791;53.108;18.326;2023-05-10T02:35:20;8.97;;;5.10;;
21266;SDS011;10791;53.108;18.326;2023-05-10T02:40:25;6.90;;;4.17;;
21266;SDS011;10791;53.108;18.326;2023-05-10T02:45:31;8.90;;;4.67;;
21266;SDS011;10791;53.108;18.326;2023-05-10T02:50:34;8.23;;;4.47;;
21266;SDS011;10791;53.108;18.326;2023-05-10T02:55:40;8.30;;;4.57;;
21266;SDS011;10791;53.108;18.326;2023-05-10T03:00:45;7.77;;;4.33;;
21266;SDS011;10791;53.108;18.326;2023-05-10T03:05:49;10.27;;;4.43;;
21266;SDS011;10791;53.108;18.326;2023-05-10T03:16:27;8.50;;;5.33;;
21266;SDS011;10791;53.108;18.326;2023-05-10T03:21:40;8.03;;;4.80;;
21266;SDS011;10791;53.108;18.326;2023-05-10T03:26:45;9.47;;;4.60;;
21266;SDS011;10791;53.108;18.326;2023-05-10T03:31:49;7.93;;;4.40;;
21266;SDS011;10791;53.108;18.326;2023-05-10T03:36:53;8.17;;;4.40;;
21266;SDS011;10791;53.108;18.326;2023-05-10T03:41:56;6.37;;;3.93;;
21266;SDS011;10791;53.108;18.326;2023-05-10T03:46:59;8.00;;;4.37;;
21266;SDS011;10791;53.108;18.326;2023-05-10T03:52:02;6.23;;;3.87;;
21266;SDS011;10791;53.108;18.326;2023-05-10T03:57:06;7.10;;;3.83;;
21266;SDS011;10791;53.108;18.326;2023-05-10T04:02:09;5.40;;;3.50;;
21266;SDS011;10791;53.108;18.326;2023-05-10T04:07:12;6.93;;;4.17;;
21266;SDS011;10791;53.108;18.326;2023-05-10T04:12:15;9.10;;;4.33;;
21266;SDS011;10791;53.108;18.326;2023-05-10T04:17:18;10.10;;;3.57;;
21266;SDS011;10791;53.108;18.326;2023-05-10T04:22:21;8.53;;;3.70;;
21266;SDS011;10791;53.108;18.326;2023-05-10T04:27:24;6.07;;;3.60;;
21266;SDS011;10791;53.108;18.326;2023-05-10T04:32:27;6.57;;;3.70;;
21266;SDS011;10791;53.108;18.326;2023-05-10T04:37:31;4.07;;;2.83;;
21266;SDS011;10791;53.108;18.326;2023-05-10T04:42:34;5.50;;;4.30;;
21266;SDS011;10791;53.108;18.326;2023-05-10T04:47:37;6.77;;;3.90;;
21266;SDS011;10791;53.108;18.326;2023-05-10T04:52:41;7.10;;;3.40;;
21266;SDS011;10791;53.108;18.326;2023-05-10T04:57:44;6.67;;;3.47;;
21266;SDS011;10791;53.108;18.326;2023-05-10T05:02:47;7.57;;;3.90;;
21266;SDS011;10791;53.108;18.326;2023-05-10T05:07:50;5.80;;;3.70;;
21266;SDS011;10791;53.108;18.326;2023-05-10T05:12:53;7.23;;;3.57;;
21266;SDS011;10791;53.108;18.326;2023-05-10T05:17:57;6.80;;;3.37;;
21266;SDS011;10791;53.108;18.326;2023-05-10T05:23:00;5.80;;;3.60;;
21266;SDS011;10791;53.108;18.326;2023-05-10T05:28:04;5.67;;;3.80;;
21266;SDS011;10791;53.108;18.326;2023-05-10T05:33:07;9.20;;;3.50;;
21266;SDS011;10791;53.108;18.326;2023-05-10T05:38:10;6.57;;;3.53;;
21266;SDS011;10791;53.108;18.326;2023-05-10T05:43:13;7.23;;;3.67;;
21266;SDS011;10791;53.108;18.326;2023-05-10T05:48:16;10.00;;;3.97;;
21266;SDS011;10791;53.108;18.326;2023-05-10T05:53:19;8.20;;;3.33;;
21266;SDS011;10791;53.108;18.326;2023-05-10T05:58:25;8.00;;;3.00;;
21266;SDS011;10791;53.108;18.326;2023-05-10T06:03:28;6.20;;;2.97;;
21266;SDS011;10791;53.108;18.326;2023-05-10T06:08:31;5.17;;;3.40;;
21266;SDS011;10791;53.108;18.326;2023-05-10T06:13:36;5.60;;;3.10;;
21266;SDS011;10791;53.108;18.326;2023-05-10T06:18:39;4.67;;;2.47;;
21266;SDS011;10791;53.108;18.326;2023-05-10T06:23:42;7.00;;;3.03;;
21266;SDS011;10791;53.108;18.326;2023-05-10T06:28:46;7.50;;;2.60;;
21266;SDS011;10791;53.108;18.326;2023-05-10T06:33:49;6.00;;;3.07;;
21266;SDS011;10791;53.108;18.326;2023-05-10T06:38:52;5.20;;;2.67;;
21266;SDS011;10791;53.108;18.326;2023-05-10T06:43:56;6.17;;;2.67;;
21266;SDS011;10791;53.108;18.326;2023-05-10T06:48:59;5.10;;;2.73;;
21266;SDS011;10791;53.108;18.326;2023-05-10T06:54:02;5.03;;;2.80;;
21266;SDS011;10791;53.108;18.326;2023-05-10T06:59:05;5.07;;;2.57;;
21266;SDS011;10791;53.108;18.326;2023-05-10T07:04:09;8.10;;;3.03;;
21266;SDS011;10791;53.108;18.326;2023-05-10T07:09:12;38.67;;;5.87;;
21266;SDS011;10791;53.108;18.326;2023-05-10T07:14:16;10.17;;;3.33;;
21266;SDS011;10791;53.108;18.326;2023-05-10T07:19:19;6.57;;;2.97;;
21266;SDS011;10791;53.108;18.326;2023-05-10T07:24:22;9.43;;;2.80;;
21266;SDS011;10791;53.108;18.326;2023-05-10T07:29:25;7.97;;;2.50;;
21266;SDS011;10791;53.108;18.326;2023-05-10T07:34:28;7.40;;;2.37;;
21266;SDS011;10791;53.108;18.326;2023-05-10T07:39:32;13.33;;;2.90;;
21266;SDS011;10791;53.108;18.326;2023-05-10T07:44:35;4.93;;;2.40;;
21266;SDS011;10791;53.108;18.326;2023-05-10T07:49:38;6.82;;;2.60;;
21266;SDS011;10791;53.108;18.326;2023-05-10T07:54:42;6.78;;;2.20;;
21266;SDS011;10791;53.108;18.326;2023-05-10T07:59:45;5.18;;;2.63;;
21266;SDS011;10791;53.108;18.326;2023-05-10T08:04:49;6.90;;;2.38;;
21266;SDS011;10791;53.108;18.326;2023-05-10T08:09:52;3.53;;;1.98;;
21266;SDS011;10791;53.108;18.326;2023-05-10T08:14:54;7.13;;;2.30;;
21266;SDS011;10791;53.108;18.326;2023-05-10T08:20:01;7.50;;;2.55;;
21266;SDS011;10791;53.108;18.326;2023-05-10T08:25:04;4.72;;;2.30;;
21266;SDS011;10791;53.108;18.326;2023-05-10T08:30:09;3.58;;;1.95;;
21266;SDS011;10791;53.108;18.326;2023-05-10T08:35:13;8.88;;;2.10;;
21266;SDS011;10791;53.108;18.326;2023-05-10T08:40:19;3.65;;;2.17;;
21266;SDS011;10791;53.108;18.326;2023-05-10T08:45:26;5.28;;;2.30;;
21266;SDS011;10791;53.108;18.326;2023-05-10T08:50:35;5.50;;;2.65;;
21266;SDS011;10791;53.108;18.326;2023-05-10T08:55:39;8.52;;;2.60;;
21266;SDS011;10791;53.108;18.326;2023-05-10T09:00:44;6.28;;;2.63;;
21266;SDS011;10791;53.108;18.326;2023-05-10T09:05:49;5.38;;;2.17;;
21266;SDS011;10791;53.108;18.326;2023-05-10T09:10:53;7.18;;;2.30;;
21266;SDS011;10791;53.108;18.326;2023-05-10T09:15:57;8.10;;;2.20;;
21266;SDS011;10791;53.108;18.326;2023-05-10T09:21:11;8.15;;;2.80;;
21266;SDS011;10791;53.108;18.326;2023-05-10T09:26:14;10.32;;;3.00;;
21266;SDS011;10791;53.108;18.326;2023-05-10T09:31:18;4.97;;;2.13;;
21266;SDS011;10791;53.108;18.326;2023-05-10T09:36:22;5.05;;;2.42;;
21266;SDS011;10791;53.108;18.326;2023-05-10T09:41:25;5.65;;;1.95;;
21266;SDS011;10791;53.108;18.326;2023-05-10T09:46:30;6.50;;;1.75;;
21266;SDS011;10791;53.108;18.326;2023-05-10T09:51:38;5.35;;;1.90;;
21266;SDS011;10791;53.108;18.326;2023-05-10T09:56:41;2.67;;;1.90;;
21266;SDS011;10791;53.108;18.326;2023-05-10T10:01:51;4.15;;;2.40;;
21266;SDS011;10791;53.108;18.326;2023-05-10T10:07:13;2.55;;;1.40;;
21266;SDS011;10791;53.108;18.326;2023-05-10T10:12:16;6.32;;;1.83;;
21266;SDS011;10791;53.108;18.326;2023-05-10T10:17:20;3.40;;;2.10;;
21266;SDS011;10791;53.108;18.326;2023-05-10T10:22:24;6.03;;;2.05;;
21266;SDS011;10791;53.108;18.326;2023-05-10T10:27:56;7.25;;;2.35;;
21266;SDS011;10791;53.108;18.326;2023-05-10T10:38:36;5.30;;;2.08;;
21266;SDS011;10791;53.108;18.326;2023-05-10T10:43:49;3.97;;;2.10;;
21266;SDS011;10791;53.108;18.326;2023-05-10T10:49:12;5.22;;;2.10;;
21266;SDS011;10791;53.108;18.326;2023-05-10T10:54:28;7.80;;;2.25;;
21266;SDS011;10791;53.108;18.326;2023-05-10T10:59:31;4.10;;;2.20;;
21266;SDS011;10791;53.108;18.326;2023-05-10T11:04:41;4.50;;;2.28;;
21266;SDS011;10791;53.108;18.326;2023-05-10T11:09:46;6.38;;;2.15;;
21266;SDS011;10791;53.108;18.326;2023-05-10T11:14:50;10.55;;;2.10;;
21266;SDS011;10791;53.108;18.326;2023-05-10T11:20:06;8.90;;;2.28;;
21266;SDS011;10791;53.108;18.326;2023-05-10T11:25:12;6.20;;;2.80;;
21266;SDS011;10791;53.108;18.326;2023-05-10T11:30:15;4.03;;;2.10;;
21266;SDS011;10791;53.108;18.326;2023-05-10T11:35:20;7.65;;;2.35;;
21266;SDS011;10791;53.108;18.326;2023-05-10T11:40:23;4.97;;;2.15;;
21266;SDS011;10791;53.108;18.326;2023-05-10T11:45:26;14.27;;;3.03;;
21266;SDS011;10791;53.108;18.326;2023-05-10T11:50:31;4.85;;;2.05;;
21266;SDS011;10791;53.108;18.326;2023-05-10T11:55:35;3.40;;;1.73;;
21266;SDS011;10791;53.108;18.326;2023-05-10T12:00:38;3.70;;;2.15;;
21266;SDS011;10791;53.108;18.326;2023-05-10T12:05:41;3.20;;;2.03;;
21266;SDS011;10791;53.108;18.326;2023-05-10T12:10:45;5.85;;;2.72;;
21266;SDS011;10791;53.108;18.326;2023-05-10T12:15:49;6.43;;;2.42;;
21266;SDS011;10791;53.108;18.326;2023-05-10T12:20:52;5.82;;;2.30;;
21266;SDS011;10791;53.108;18.326;2023-05-10T12:26:02;9.27;;;2.50;;
21266;SDS011;10791;53.108;18.326;2023-05-10T12:31:06;5.25;;;2.67;;
21266;SDS011;10791;53.108;18.326;2023-05-10T12:36:10;7.45;;;2.30;;
21266;SDS011;10791;53.108;18.326;2023-05-10T12:41:15;5.68;;;2.33;;
21266;SDS011;10791;53.108;18.326;2023-05-10T12:46:20;6.88;;;2.45;;
21266;SDS011;10791;53.108;18.326;2023-05-10T12:51:25;3.45;;;2.13;;
21266;SDS011;10791;53.108;18.326;2023-05-10T12:56:28;7.60;;;2.30;;
21266;SDS011;10791;53.108;18.326;2023-05-10T13:01:32;7.25;;;2.47;;
21266;SDS011;10791;53.108;18.326;2023-05-10T13:06:35;3.38;;;2.25;;
21266;SDS011;10791;53.108;18.326;2023-05-10T13:11:38;6.60;;;2.53;;
21266;SDS011;10791;53.108;18.326;2023-05-10T13:16:41;6.13;;;2.13;;
21266;SDS011;10791;53.108;18.326;2023-05-10T13:21:44;6.28;;;1.83;;
21266;SDS011;10791;53.108;18.326;2023-05-10T13:26:47;6.28;;;2.10;;
21266;SDS011;10791;53.108;18.326;2023-05-10T13:31:50;5.93;;;1.90;;
21266;SDS011;10791;53.108;18.326;2023-05-10T13:36:54;3.72;;;2.08;;
21266;SDS011;10791;53.108;18.326;2023-05-10T13:41:58;4.30;;;2.13;;
21266;SDS011;10791;53.108;18.326;2023-05-10T13:47:01;4.15;;;2.28;;
21266;SDS011;10791;53.108;18.326;2023-05-10T13:52:04;3.28;;;2.20;;
21266;SDS011;10791;53.108;18.326;2023-05-10T13:57:12;5.13;;;1.90;;
21266;SDS011;10791;53.108;18.326;2023-05-10T14:02:16;4.07;;;1.90;;
21266;SDS011;10791;53.108;18.326;2023-05-10T14:07:19;5.13;;;2.00;;
21266;SDS011;10791;53.108;18.326;2023-05-10T14:12:22;5.85;;;2.53;;
21266;SDS011;10791;53.108;18.326;2023-05-10T14:17:25;5.70;;;2.10;;
21266;SDS011;10791;53.108;18.326;2023-05-10T14:22:27;6.43;;;2.70;;
21266;SDS011;10791;53.108;18.326;2023-05-10T14:27:31;8.95;;;2.28;;
21266;SDS011;10791;53.108;18.326;2023-05-10T14:32:36;6.38;;;2.17;;
21266;SDS011;10791;53.108;18.326;2023-05-10T14:37:40;5.50;;;3.03;;
21266;SDS011;10791;53.108;18.326;2023-05-10T14:42:43;5.70;;;2.33;;
21266;SDS011;10791;53.108;18.326;2023-05-10T14:47:46;7.07;;;2.78;;
21266;SDS011;10791;53.108;18.326;2023-05-10T14:52:49;6.63;;;2.85;;
21266;SDS011;10791;53.108;18.326;2023-05-10T14:57:52;6.32;;;2.60;;
21266;SDS011;10791;53.108;18.326;2023-05-10T15:02:55;7.90;;;2.20;;
21266;SDS011;10791;53.108;18.326;2023-05-10T15:07:59;4.35;;;2.17;;
21266;SDS011;10791;53.108;18.326;2023-05-10T15:13:03;8.35;;;2.42;;
21266;SDS011;10791;53.108;18.326;2023-05-10T15:18:06;3.40;;;1.80;;
21266;SDS011;10791;53.108;18.326;2023-05-10T15:23:09;4.22;;;2.40;;
21266;SDS011;10791;53.108;18.326;2023-05-10T15:28:12;5.47;;;2.35;;
21266;SDS011;10791;53.108;18.326;2023-05-10T15:33:15;5.25;;;2.28;;
21266;SDS011;10791;53.108;18.326;2023-05-10T15:38:19;7.45;;;2.67;;
21266;SDS011;10791;53.108;18.326;2023-05-10T15:43:23;9.88;;;2.45;;
21266;SDS011;10791;53.108;18.326;2023-05-10T15:48:26;2.65;;;2.03;;
21266;SDS011;10791;53.108;18.326;2023-05-10T15:53:30;6.47;;;2.65;;
21266;SDS011;10791;53.108;18.326;2023-05-10T15:58:33;4.68;;;2.55;;
21266;SDS011;10791;53.108;18.326;2023-05-10T16:03:37;4.45;;;2.20;;
21266;SDS011;10791;53.108;18.326;2023-05-10T16:08:40;3.50;;;2.03;;
21266;SDS011;10791;53.108;18.326;2023-05-10T16:13:44;4.80;;;2.55;;
21266;SDS011;10791;53.108;18.326;2023-05-10T16:18:47;4.30;;;2.55;;
21266;SDS011;10791;53.108;18.326;2023-05-10T16:23:50;5.60;;;2.80;;
21266;SDS011;10791;53.108;18.326;2023-05-10T16:28:55;7.88;;;2.33;;
21266;SDS011;10791;53.108;18.326;2023-05-10T16:33:59;3.78;;;1.98;;
21266;SDS011;10791;53.108;18.326;2023-05-10T16:39:02;5.20;;;2.20;;
21266;SDS011;10791;53.108;18.326;2023-05-10T16:44:05;3.33;;;2.30;;
21266;SDS011;10791;53.108;18.326;2023-05-10T16:49:09;4.47;;;2.10;;
21266;SDS011;10791;53.108;18.326;2023-05-10T16:54:13;6.05;;;3.22;;
21266;SDS011;10791;53.108;18.326;2023-05-10T16:59:18;5.78;;;2.70;;
21266;SDS011;10791;53.108;18.326;2023-05-10T17:04:21;5.35;;;3.10;;
21266;SDS011;10791;53.108;18.326;2023-05-10T17:09:25;6.13;;;2.85;;
21266;SDS011;10791;53.108;18.326;2023-05-10T17:14:28;8.07;;;3.28;;
21266;SDS011;10791;53.108;18.326;2023-05-10T17:19:31;6.38;;;3.42;;
21266;SDS011;10791;53.108;18.326;2023-05-10T17:24:34;5.43;;;2.60;;
21266;SDS011;10791;53.108;18.326;2023-05-10T17:29:37;7.07;;;2.47;;
21266;SDS011;10791;53.108;18.326;2023-05-10T17:34:41;9.38;;;3.05;;
21266;SDS011;10791;53.108;18.326;2023-05-10T17:39:44;5.15;;;2.25;;
21266;SDS011;10791;53.108;18.326;2023-05-10T17:44:47;7.60;;;3.95;;
21266;SDS011;10791;53.108;18.326;2023-05-10T17:49:51;6.50;;;3.58;;
21266;SDS011;10791;53.108;18.326;2023-05-10T17:54:54;5.88;;;2.55;;
21266;SDS011;10791;53.108;18.326;2023-05-10T17:59:57;5.57;;;2.40;;
21266;SDS011;10791;53.108;18.326;2023-05-10T18:05:00;4.10;;;2.70;;
21266;SDS011;10791;53.108;18.326;2023-05-10T18:10:05;7.18;;;2.75;;
21266;SDS011;10791;53.108;18.326;2023-05-10T18:15:08;6.90;;;2.72;;
21266;SDS011;10791;53.108;18.326;2023-05-10T18:20:12;8.48;;;4.00;;
21266;SDS011;10791;53.108;18.326;2023-05-10T18:25:15;15.27;;;6.05;;
21266;SDS011;10791;53.108;18.326;2023-05-10T18:30:18;10.50;;;4.80;;
21266;SDS011;10791;53.108;18.326;2023-05-10T18:35:22;8.10;;;3.78;;
21266;SDS011;10791;53.108;18.326;2023-05-10T18:40:25;5.80;;;2.92;;
21266;SDS011;10791;53.108;18.326;2023-05-10T18:45:29;7.88;;;2.80;;
21266;SDS011;10791;53.108;18.326;2023-05-10T18:50:33;5.47;;;3.20;;
21266;SDS011;10791;53.108;18.326;2023-05-10T18:55:38;5.80;;;2.70;;
21266;SDS011;10791;53.108;18.326;2023-05-10T19:00:42;9.77;;;4.03;;
21266;SDS011;10791;53.108;18.326;2023-05-10T19:05:46;15.07;;;5.63;;
21266;SDS011;10791;53.108;18.326;2023-05-10T19:10:52;11.83;;;6.27;;
21266;SDS011;10791;53.108;18.326;2023-05-10T19:16:03;7.53;;;3.57;;
21266;SDS011;10791;53.108;18.326;2023-05-10T19:21:10;7.47;;;3.77;;
21266;SDS011;10791;53.108;18.326;2023-05-10T19:26:14;37.80;;;5.57;;
21266;SDS011;10791;53.108;18.326;2023-05-10T19:31:19;12.80;;;3.50;;
21266;SDS011;10791;53.108;18.326;2023-05-10T19:36:24;8.30;;;3.27;;
21266;SDS011;10791;53.108;18.326;2023-05-10T19:41:29;9.33;;;3.00;;
21266;SDS011;10791;53.108;18.326;2023-05-10T19:46:34;5.60;;;3.17;;
21266;SDS011;10791;53.108;18.326;2023-05-10T19:51:41;7.03;;;3.97;;
21266;SDS011;10791;53.108;18.326;2023-05-10T19:56:47;6.40;;;3.17;;
21266;SDS011;10791;53.108;18.326;2023-05-10T20:01:54;5.63;;;3.10;;
21266;SDS011;10791;53.108;18.326;2023-05-10T20:07:01;6.97;;;3.27;;
21266;SDS011;10791;53.108;18.326;2023-05-10T20:12:07;7.53;;;2.97;;
21266;SDS011;10791;53.108;18.326;2023-05-10T20:17:11;4.83;;;2.63;;
21266;SDS011;10791;53.108;18.326;2023-05-10T20:22:15;4.40;;;2.57;;
21266;SDS011;10791;53.108;18.326;2023-05-10T20:27:19;6.30;;;2.40;;
21266;SDS011;10791;53.108;18.326;2023-05-10T20:32:23;6.93;;;3.20;;
21266;SDS011;10791;53.108;18.326;2023-05-10T20:37:28;9.83;;;3.37;;
21266;SDS011;10791;53.108;18.326;2023-05-10T20:42:33;6.87;;;4.40;;
21266;SDS011;10791;53.108;18.326;2023-05-10T20:47:37;5.50;;;3.10;;
21266;SDS011;10791;53.108;18.326;2023-05-10T20:52:40;6.03;;;3.20;;
21266;SDS011;10791;53.108;18.326;2023-05-10T20:57:43;6.20;;;3.10;;
21266;SDS011;10791;53.108;18.326;2023-05-10T21:02:48;5.53;;;3.30;;
21266;SDS011;10791;53.108;18.326;2023-05-10T21:07:51;5.87;;;2.83;;
21266;SDS011;10791;53.108;18.326;2023-05-10T21:12:55;6.83;;;3.00;;
21266;SDS011;10791;53.108;18.326;2023-05-10T21:17:59;17.57;;;3.97;;
21266;SDS011;10791;53.108;18.326;2023-05-10T21:23:03;7.63;;;3.70;;
21266;SDS011;10791;53.108;18.326;2023-05-10T21:28:07;6.33;;;3.40;;
21266;SDS011;10791;53.108;18.326;2023-05-10T21:33:10;5.23;;;2.90;;
21266;SDS011;10791;53.108;18.326;2023-05-10T21:38:14;9.40;;;3.73;;
21266;SDS011;10791;53.108;18.326;2023-05-10T21:43:17;3.93;;;2.73;;
21266;SDS011;10791;53.108;18.326;2023-05-10T21:48:22;4.97;;;2.80;;
21266;SDS011;10791;53.108;18.326;2023-05-10T21:53:26;7.10;;;3.40;;
21266;SDS011;10791;53.108;18.326;2023-05-10T21:58:30;7.07;;;2.90;;
21266;SDS011;10791;53.108;18.326;2023-05-10T22:03:33;5.77;;;2.77;;
21266;SDS011;10791;53.108;18.326;2023-05-10T22:08:36;5.10;;;2.73;;
21266;SDS011;10791;53.108;18.326;2023-05-10T22:13:39;5.97;;;3.00;;
21266;SDS011;10791;53.108;18.326;2023-05-10T22:18:42;5.13;;;2.73;;
21266;SDS011;10791;53.108;18.326;2023-05-10T22:23:45;7.87;;;3.10;;
21266;SDS011;10791;53.108;18.326;2023-05-10T22:28:48;6.20;;;3.17;;
21266;SDS011;10791;53.108;18.326;2023-05-10T22:33:51;6.23;;;2.87;;
21266;SDS011;10791;53.108;18.326;2023-05-10T22:38:54;5.37;;;2.87;;
21266;SDS011;10791;53.108;18.326;2023-05-10T22:43:57;6.43;;;2.97;;
21266;SDS011;10791;53.108;18.326;2023-05-10T22:49:01;6.50;;;3.60;;
21266;SDS011;10791;53.108;18.326;2023-05-10T22:54:04;5.37;;;2.87;;
21266;SDS011;10791;53.108;18.326;2023-05-10T22:59:08;9.07;;;3.70;;
21266;SDS011;10791;53.108;18.326;2023-05-10T23:04:11;8.67;;;4.40;;
21266;SDS011;10791;53.108;18.326;2023-05-10T23:09:15;9.23;;;3.73;;
21266;SDS011;10791;53.108;18.326;2023-05-10T23:14:18;5.00;;;3.33;;
21266;SDS011;10791;53.108;18.326;2023-05-10T23:19:21;5.23;;;2.50;;
21266;SDS011;10791;53.108;18.326;2023-05-10T23:24:25;6.43;;;2.63;;
21266;SDS011;10791;53.108;18.326;2023-05-10T23:29:29;4.37;;;2.73;;
21266;SDS011;10791;53.108;18.326;2023-05-10T23:34:33;5.30;;;3.00;;
21266;SDS011;10791;53.108;18.326;2023-05-10T23:39:36;4.10;;;2.60;;
21266;SDS011;10791;53.108;18.326;2023-05-10T23:44:39;6.60;;;3.17;;
21266;SDS011;10791;53.108;18.326;2023-05-10T23:49:42;6.10;;;3.07;;
21266;SDS011;10791;53.108;18.326;2023-05-10T23:54:45;9.17;;;3.77;;
21266;SDS011;10791;53.108;18.326;2023-05-10T23:59:49;4.63;;;3.10;;
